Time;durP1;ratioP1;P1;durP2;ratioP2;P2;SDS_P1;SDS_P2;PMS_P1;PMS_P2;Temp;Humidity;BMP_temperature;BMP_pressure;BME280_temperature;BME280_humidity;BME280_pressure;Samples;Min_cycle;Max_cycle;Signal;HPM_P1;HPM_P2
2024/03/31 00:00:09;;;;;;;65.63;14.57;;;10.50;99.90;;;;;;4943444;28;20448;-83
2024/03/31 00:02:35;;;;;;;70.27;12.97;;;10.50;99.90;;;;;;4961447;28;20037;-84
2024/03/31 00:05:01;;;;;;;59.00;12.00;;;10.40;99.90;;;;;;4959465;28;20019;-84
2024/03/31 00:07:27;;;;;;;57.40;13.23;;;10.40;99.90;;;;;;4962422;28;20399;-83
2024/03/31 00:09:52;;;;;;;68.40;13.80;;;10.40;99.90;;;;;;4960433;28;20029;-83
2024/03/31 00:12:18;;;;;;;63.53;12.10;;;10.30;99.90;;;;;;4961055;28;20037;-83
2024/03/31 00:14:46;;;;;;;77.33;13.40;;;10.30;99.90;;;;;;4961395;28;20030;-83
2024/03/31 00:17:12;;;;;;;66.10;12.30;;;10.30;99.90;;;;;;4943878;28;20035;-83
2024/03/31 00:19:38;;;;;;;56.77;12.87;;;10.30;99.90;;;;;;4961218;28;20038;-83
2024/03/31 00:22:04;;;;;;;67.17;11.83;;;10.30;99.90;;;;;;4964439;28;20045;-83
2024/03/31 00:24:29;;;;;;;69.10;12.97;;;10.30;99.90;;;;;;4943951;28;20039;-83
2024/03/31 00:26:55;;;;;;;65.53;11.83;;;10.20;99.90;;;;;;4960693;28;20932;-83
2024/03/31 00:29:21;;;;;;;67.70;11.90;;;10.30;99.90;;;;;;4962272;28;20062;-83
2024/03/31 00:31:46;;;;;;;55.53;10.80;;;10.20;99.90;;;;;;4964862;28;20458;-82
2024/03/31 00:34:13;;;;;;;78.03;13.40;;;10.20;99.90;;;;;;4960773;28;20107;-83
2024/03/31 00:36:39;;;;;;;80.53;14.30;;;10.20;99.90;;;;;;4962223;28;20030;-83
2024/03/31 00:39:05;;;;;;;69.93;12.87;;;10.10;99.90;;;;;;4963172;28;20031;-82
2024/03/31 00:41:31;;;;;;;65.53;12.83;;;10.10;99.90;;;;;;4962607;28;20049;-83
2024/03/31 00:43:57;;;;;;;65.17;14.77;;;10.00;99.90;;;;;;4962066;28;20512;-83
2024/03/31 00:46:22;;;;;;;63.83;12.07;;;10.00;99.90;;;;;;4958378;28;20090;-84
2024/03/31 00:48:48;;;;;;;69.63;14.00;;;10.00;99.90;;;;;;4960767;28;20126;-83
2024/03/31 00:51:13;;;;;;;67.13;14.23;;;10.00;99.90;;;;;;4962796;28;20069;-83
2024/03/31 00:53:39;;;;;;;62.47;11.10;;;10.00;99.90;;;;;;4960802;28;20042;-83
2024/03/31 00:56:05;;;;;;;63.53;13.23;;;9.90;99.90;;;;;;4958479;28;20042;-83
2024/03/31 00:58:30;;;;;;;68.13;14.87;;;9.90;99.90;;;;;;4962511;28;20049;-84
2024/03/31 01:00:56;;;;;;;58.93;11.17;;;9.90;99.90;;;;;;4942294;28;20026;-83
2024/03/31 01:03:27;;;;;;;59.87;12.00;;;9.90;99.90;;;;;;4957952;28;20684;-83
2024/03/31 01:05:53;;;;;;;65.47;11.93;;;9.90;99.90;;;;;;4938879;28;20042;-83
2024/03/31 01:08:19;;;;;;;56.93;12.87;;;9.90;99.90;;;;;;4958805;28;20061;-83
2024/03/31 01:10:44;;;;;;;60.67;12.53;;;9.80;99.90;;;;;;4960861;28;21267;-83
2024/03/31 01:13:11;;;;;;;75.60;13.10;;;9.80;99.90;;;;;;4958992;28;20034;-83
2024/03/31 01:15:36;;;;;;;66.63;13.37;;;9.80;99.90;;;;;;4959413;28;20727;-83
2024/03/31 01:18:03;;;;;;;67.77;13.73;;;9.80;99.90;;;;;;4960465;28;20062;-83
2024/03/31 01:20:29;;;;;;;70.17;13.50;;;9.70;99.90;;;;;;4959216;28;20038;-83
2024/03/31 01:22:55;;;;;;;51.63;13.47;;;9.70;99.90;;;;;;4961014;28;20013;-83
2024/03/31 01:25:20;;;;;;;69.23;13.17;;;9.70;99.90;;;;;;4959865;28;20035;-83
2024/03/31 01:27:46;;;;;;;69.67;14.03;;;9.60;99.90;;;;;;4960614;28;20403;-83
2024/03/31 01:30:12;;;;;;;69.97;11.00;;;9.70;99.90;;;;;;4961404;28;20035;-83
2024/03/31 01:32:39;;;;;;;53.03;10.50;;;9.80;99.90;;;;;;4959658;28;20030;-74
2024/03/31 01:35:04;;;;;;;56.53;11.13;;;9.80;99.90;;;;;;4958200;28;20460;-83
2024/03/31 01:37:30;;;;;;;49.53;7.93;;;9.90;99.90;;;;;;4960820;28;20027;-83
2024/03/31 01:39:58;;;;;;;47.43;8.83;;;9.90;99.90;;;;;;4960146;28;20022;-83
2024/03/31 01:42:24;;;;;;;45.33;7.83;;;10.00;99.90;;;;;;4961367;28;20069;-83
2024/03/31 01:44:50;;;;;;;40.53;7.30;;;10.00;99.90;;;;;;4942141;28;20039;-82
2024/03/31 01:47:15;;;;;;;55.87;9.03;;;10.00;99.90;;;;;;4960585;28;20034;-83
2024/03/31 01:49:41;;;;;;;38.93;7.07;;;10.00;99.90;;;;;;4958955;28;20042;-83
2024/03/31 01:52:06;;;;;;;41.30;6.20;;;10.00;99.90;;;;;;4958726;28;20427;-83
2024/03/31 01:54:34;;;;;;;44.27;6.23;;;10.00;99.90;;;;;;4961289;28;20027;-83
2024/03/31 01:56:59;;;;;;;38.33;7.33;;;10.00;99.90;;;;;;4960392;28;20039;-84
2024/03/31 01:59:25;;;;;;;43.70;6.33;;;10.00;99.90;;;;;;4944018;28;20027;-83
2024/03/31 02:01:50;;;;;;;55.43;7.60;;;10.00;99.90;;;;;;4961306;28;20031;-83
2024/03/31 02:04:16;;;;;;;42.27;6.50;;;10.00;99.90;;;;;;4962102;28;20396;-83
2024/03/31 02:06:42;;;;;;;45.83;6.63;;;10.00;99.90;;;;;;4964543;28;20073;-83
2024/03/31 02:09:08;;;;;;;43.80;5.53;;;9.90;99.90;;;;;;4963153;28;20065;-82
2024/03/31 02:11:33;;;;;;;46.40;7.03;;;9.90;99.90;;;;;;4963537;28;20050;-83
2024/03/31 02:13:59;;;;;;;44.43;5.83;;;10.00;99.90;;;;;;4963666;28;20407;-82
2024/03/31 02:16:25;;;;;;;36.97;5.53;;;9.90;99.90;;;;;;4961632;28;20035;-83
2024/03/31 02:18:50;;;;;;;42.33;7.07;;;9.90;99.90;;;;;;4945056;28;20027;-82
2024/03/31 02:21:15;;;;;;;47.70;5.60;;;9.90;99.90;;;;;;4963567;28;20039;-83
2024/03/31 02:23:41;;;;;;;38.10;5.53;;;9.90;99.90;;;;;;4962606;28;20671;-84
2024/03/31 02:26:07;;;;;;;40.90;5.90;;;9.90;99.90;;;;;;4963968;28;20085;-82
2024/03/31 02:28:34;;;;;;;39.27;6.93;;;9.80;99.90;;;;;;4961897;28;20090;-83
2024/03/31 02:31:00;;;;;;;28.47;4.97;;;9.80;99.90;;;;;;4962961;28;20034;-83
2024/03/31 02:33:26;;;;;;;43.40;6.43;;;9.80;99.90;;;;;;4961758;28;20057;-83
2024/03/31 02:35:52;;;;;;;32.77;5.17;;;9.80;99.90;;;;;;4961763;28;20062;-83
2024/03/31 02:38:17;;;;;;;50.87;7.10;;;9.80;99.90;;;;;;4959536;28;20183;-83
2024/03/31 02:40:43;;;;;;;42.37;7.20;;;9.70;99.90;;;;;;4943428;28;20130;-83
2024/03/31 02:43:08;;;;;;;34.07;5.17;;;9.70;99.90;;;;;;4961609;28;20026;-83
2024/03/31 02:45:34;;;;;;;35.33;5.87;;;9.70;99.90;;;;;;4958818;28;20046;-83
2024/03/31 02:48:00;;;;;;;29.97;5.60;;;9.60;99.90;;;;;;4958864;28;20156;-84
2024/03/31 02:50:27;;;;;;;45.13;7.20;;;9.60;99.90;;;;;;4959586;28;20054;-83
2024/03/31 02:52:53;;;;;;;49.80;7.57;;;9.60;99.90;;;;;;4959877;28;20026;-84
2024/03/31 02:55:18;;;;;;;36.13;5.67;;;9.50;99.90;;;;;;4959927;28;20038;-84
2024/03/31 02:57:47;;;;;;;40.93;6.10;;;9.50;99.90;;;;;;4943975;28;20125;-83
2024/03/31 03:00:15;;;;;;;42.97;5.77;;;9.40;99.90;;;;;;4961500;28;20157;-83
2024/03/31 03:02:40;;;;;;;42.03;6.50;;;9.40;99.90;;;;;;4944892;28;20053;-84
2024/03/31 03:05:06;;;;;;;48.63;6.13;;;9.30;99.90;;;;;;4960517;28;20059;-82
2024/03/31 03:07:31;;;;;;;38.23;6.03;;;9.30;99.90;;;;;;4962180;28;20094;-84
2024/03/31 03:09:57;;;;;;;31.57;5.73;;;9.20;99.90;;;;;;4961116;28;20023;-82
2024/03/31 03:12:23;;;;;;;36.83;6.13;;;9.20;99.90;;;;;;4961912;28;21398;-83
2024/03/31 03:14:52;;;;;;;41.53;6.00;;;9.20;99.90;;;;;;4961931;28;20054;-83
2024/03/31 03:17:18;;;;;;;45.33;6.90;;;9.10;99.90;;;;;;4943577;28;20027;-84
2024/03/31 03:19:44;;;;;;;31.67;7.60;;;9.10;99.90;;;;;;4963827;28;20055;-82
2024/03/31 03:22:09;;;;;;;52.90;6.50;;;9.10;99.90;;;;;;4961599;28;20759;-82
2024/03/31 03:24:35;;;;;;;36.53;5.33;;;9.00;99.90;;;;;;4959267;28;20070;-83
2024/03/31 03:27:01;;;;;;;35.67;6.40;;;9.00;99.90;;;;;;4962749;28;20025;-83
2024/03/31 03:29:26;;;;;;;33.93;5.37;;;8.90;99.90;;;;;;4958942;28;20045;-83
2024/03/31 03:31:53;;;;;;;40.87;6.90;;;8.90;99.90;;;;;;4960591;28;20011;-83
2024/03/31 03:34:18;;;;;;;40.23;5.53;;;8.80;99.90;;;;;;4962436;28;20034;-83
2024/03/31 03:36:44;;;;;;;40.97;5.13;;;8.80;99.90;;;;;;4961194;28;20023;-83
2024/03/31 03:39:09;;;;;;;41.33;6.80;;;8.80;99.90;;;;;;4959447;28;20031;-82
2024/03/31 03:41:35;;;;;;;32.13;4.43;;;8.70;99.90;;;;;;4962652;28;20039;-83
2024/03/31 03:44:01;;;;;;;38.27;7.60;;;8.60;99.90;;;;;;4944564;28;20555;-83
2024/03/31 03:46:26;;;;;;;43.53;6.37;;;8.60;99.90;;;;;;4960421;28;20118;-83
2024/03/31 03:48:52;;;;;;;36.70;5.33;;;8.60;99.90;;;;;;4962456;28;20125;-83
2024/03/31 03:51:17;;;;;;;35.23;5.93;;;8.50;99.90;;;;;;4962656;28;20077;-83
2024/03/31 03:53:43;;;;;;;37.57;5.20;;;8.50;99.90;;;;;;4961117;28;20034;-83
2024/03/31 03:56:08;;;;;;;40.37;6.40;;;8.50;99.90;;;;;;4958581;28;20030;-83
2024/03/31 03:58:34;;;;;;;35.13;6.13;;;8.40;99.90;;;;;;4960111;28;20027;-83
2024/03/31 04:00:59;;;;;;;36.03;7.20;;;8.40;99.90;;;;;;4961434;28;20037;-83
2024/03/31 04:03:25;;;;;;;46.73;6.80;;;8.30;99.90;;;;;;4959041;28;20050;-83
2024/03/31 04:05:56;;;;;;;37.87;5.60;;;8.30;99.90;;;;;;4961883;28;20126;-83
2024/03/31 04:08:22;;;;;;;41.80;5.63;;;8.20;99.90;;;;;;4943705;28;20505;-83
2024/03/31 04:10:47;;;;;;;36.07;4.87;;;8.20;99.90;;;;;;4960931;28;20034;-83
2024/03/31 04:13:13;;;;;;;38.13;5.33;;;8.20;99.90;;;;;;4961159;28;20039;-83
2024/03/31 04:15:39;;;;;;;39.40;5.10;;;8.20;99.90;;;;;;4960344;28;20062;-82
2024/03/31 04:18:05;;;;;;;32.77;6.00;;;8.10;99.90;;;;;;4936696;28;20039;-84
2024/03/31 04:20:31;;;;;;;31.87;4.60;;;8.10;99.90;;;;;;4963241;28;20042;-83
2024/03/31 04:22:56;;;;;;;39.00;5.67;;;8.10;99.90;;;;;;4960302;28;20410;-83
2024/03/31 04:25:22;;;;;;;36.73;6.80;;;8.10;99.90;;;;;;4961025;28;20950;-82
2024/03/31 04:27:51;;;;;;;44.30;5.73;;;8.00;99.90;;;;;;4958161;28;20054;-82
2024/03/31 04:30:16;;;;;;;37.97;6.03;;;8.00;99.90;;;;;;4959569;28;20042;-83
2024/03/31 04:32:42;;;;;;;32.07;5.00;;;8.00;99.90;;;;;;4960880;28;20023;-83
2024/03/31 04:35:07;;;;;;;31.57;4.90;;;7.90;99.90;;;;;;4958557;28;20027;-83
2024/03/31 04:37:33;;;;;;;28.40;5.20;;;7.90;99.90;;;;;;4944419;28;20491;-83
2024/03/31 04:39:58;;;;;;;49.67;5.37;;;7.90;99.90;;;;;;4961639;28;20702;-83
2024/03/31 04:42:24;;;;;;;27.40;6.10;;;7.80;99.90;;;;;;4959234;28;20050;-83
2024/03/31 04:44:52;;;;;;;32.43;5.43;;;7.80;99.90;;;;;;4958508;28;20039;-84
2024/03/31 04:47:19;;;;;;;23.10;4.37;;;7.80;99.90;;;;;;4958350;28;20026;-84
2024/03/31 04:49:45;;;;;;;36.47;5.13;;;7.80;99.90;;;;;;4957573;28;20035;-83
2024/03/31 04:52:11;;;;;;;36.10;5.13;;;7.70;99.90;;;;;;4958456;28;21072;-83
2024/03/31 04:54:36;;;;;;;41.00;5.87;;;7.70;99.90;;;;;;4957291;28;20185;-83
2024/03/31 04:57:02;;;;;;;33.70;5.63;;;7.70;99.90;;;;;;4955487;28;20129;-83
2024/03/31 04:59:28;;;;;;;44.90;5.30;;;7.70;99.90;;;;;;4957576;28;20031;-84
2024/03/31 05:01:53;;;;;;;38.37;5.60;;;7.70;99.90;;;;;;4940563;28;20562;-83
2024/03/31 05:04:19;;;;;;;36.43;4.90;;;7.60;99.90;;;;;;4940705;28;21479;-84
2024/03/31 05:06:45;;;;;;;41.47;5.77;;;7.60;99.90;;;;;;4957851;28;20089;-83
2024/03/31 05:09:12;;;;;;;35.37;5.23;;;7.60;99.90;;;;;;4958776;28;20491;-83
2024/03/31 05:11:37;;;;;;;41.43;5.10;;;7.60;99.90;;;;;;4940913;28;20028;-83
2024/03/31 05:14:03;;;;;;;30.50;5.47;;;7.60;99.90;;;;;;4957518;28;20034;-83
2024/03/31 05:16:28;;;;;;;35.80;5.17;;;7.60;99.90;;;;;;4957291;28;20048;-83
2024/03/31 05:18:54;;;;;;;33.77;5.20;;;7.60;99.90;;;;;;4958159;28;20043;-83
2024/03/31 05:21:20;;;;;;;37.87;6.13;;;7.60;99.90;;;;;;4940157;28;20395;-83
2024/03/31 05:23:46;;;;;;;38.93;6.43;;;7.60;99.90;;;;;;4950791;28;20086;-83
2024/03/31 05:26:13;;;;;;;34.20;5.97;;;7.60;99.90;;;;;;4956994;28;20035;-83
2024/03/31 05:28:39;;;;;;;36.60;5.97;;;7.60;99.90;;;;;;4941838;28;20027;-83
2024/03/31 05:31:04;;;;;;;40.90;7.10;;;7.60;99.90;;;;;;4960965;28;20121;-84
2024/03/31 05:33:30;;;;;;;32.57;5.67;;;7.70;99.90;;;;;;4944197;28;20039;-83
2024/03/31 05:35:56;;;;;;;31.67;6.63;;;7.70;99.90;;;;;;4960861;28;20062;-83
2024/03/31 05:38:22;;;;;;;38.57;5.27;;;7.70;99.90;;;;;;4944096;28;20122;-84
2024/03/31 05:40:48;;;;;;;37.20;5.37;;;7.70;99.90;;;;;;4960902;28;20011;-84
2024/03/31 05:43:14;;;;;;;24.13;4.73;;;7.80;99.90;;;;;;4962302;28;20653;-83
2024/03/31 05:45:40;;;;;;;32.20;4.60;;;7.80;99.90;;;;;;4959922;28;20034;-84
2024/03/31 05:48:11;;;;;;;35.40;6.30;;;7.90;99.90;;;;;;4960714;28;20039;-83
2024/03/31 05:50:38;;;;;;;45.90;5.47;;;7.90;99.90;;;;;;4943442;28;20039;-84
2024/03/31 05:53:04;;;;;;;44.60;5.07;;;7.90;99.90;;;;;;4961790;28;20110;-84
2024/03/31 05:55:30;;;;;;;28.00;5.07;;;7.90;99.90;;;;;;4960838;28;20027;-84
2024/03/31 05:57:56;;;;;;;31.10;4.67;;;8.00;99.90;;;;;;4962024;28;20033;-83
2024/03/31 06:00:22;;;;;;;36.90;6.53;;;8.00;99.90;;;;;;4960853;28;20031;-83
2024/03/31 06:02:47;;;;;;;37.87;5.63;;;8.10;99.90;;;;;;4961375;28;20085;-83
2024/03/31 06:05:13;;;;;;;30.70;5.57;;;8.10;99.90;;;;;;4959987;28;20165;-84
2024/03/31 06:07:38;;;;;;;34.20;6.07;;;8.10;99.90;;;;;;4961562;28;20027;-84
2024/03/31 06:10:04;;;;;;;39.43;5.67;;;8.20;99.90;;;;;;4960436;28;20086;-84
2024/03/31 06:12:30;;;;;;;27.20;4.67;;;8.20;99.90;;;;;;4959230;28;20023;-84
2024/03/31 06:14:55;;;;;;;34.40;5.10;;;8.20;99.90;;;;;;4960999;28;20027;-83
2024/03/31 06:17:21;;;;;;;33.97;6.53;;;8.20;99.90;;;;;;4961180;28;20035;-83
2024/03/31 06:19:47;;;;;;;34.73;5.87;;;8.20;99.90;;;;;;4962866;28;20045;-87
2024/03/31 06:22:13;;;;;;;30.50;5.37;;;8.20;99.90;;;;;;4962395;28;20042;-87
2024/03/31 06:24:38;;;;;;;34.43;4.73;;;8.30;99.90;;;;;;4963537;28;20094;-88
2024/03/31 06:27:04;;;;;;;27.90;6.17;;;8.30;99.90;;;;;;4962131;28;20499;-87
2024/03/31 06:29:30;;;;;;;30.13;4.73;;;8.30;99.90;;;;;;4959431;28;20499;-88
2024/03/31 06:31:55;;;;;;;31.03;5.43;;;8.30;99.90;;;;;;4959643;28;20028;-86
2024/03/31 06:34:21;;;;;;;43.47;6.20;;;8.40;99.90;;;;;;4960734;28;20579;-88
2024/03/31 06:36:47;;;;;;;33.93;4.30;;;8.50;99.90;;;;;;4959814;28;20035;-89
2024/03/31 06:39:12;;;;;;;33.23;5.30;;;8.50;99.90;;;;;;4963527;28;20045;-89
2024/03/31 06:41:38;;;;;;;36.67;5.20;;;8.60;99.90;;;;;;4963135;28;20023;-88
2024/03/31 06:44:04;;;;;;;28.57;4.57;;;8.60;99.90;;;;;;4960530;28;20037;-87
2024/03/31 06:46:30;;;;;;;36.80;5.40;;;8.70;99.90;;;;;;4957377;28;20058;-89
2024/03/31 06:48:55;;;;;;;26.07;5.30;;;8.70;99.90;;;;;;4961025;28;20482;-88
2024/03/31 06:51:21;;;;;;;45.70;6.23;;;8.80;99.90;;;;;;4958553;28;20039;-88
2024/03/31 06:53:50;;;;;;;34.30;5.57;;;8.80;99.90;;;;;;4960559;28;20078;-88
2024/03/31 06:56:16;;;;;;;33.60;4.53;;;8.90;99.90;;;;;;4956734;28;20031;-87
2024/03/31 06:58:41;;;;;;;29.27;5.27;;;8.90;99.90;;;;;;4959161;28;20031;-88
2024/03/31 07:01:07;;;;;;;26.53;5.30;;;8.90;99.90;;;;;;4961384;28;20019;-87
2024/03/31 07:03:32;;;;;;;39.70;6.80;;;9.00;99.90;;;;;;4957888;28;20031;-87
2024/03/31 07:05:58;;;;;;;31.27;5.27;;;9.00;99.90;;;;;;4955738;28;20058;-87
2024/03/31 07:08:23;;;;;;;43.00;6.33;;;9.10;99.90;;;;;;4941550;28;20031;-88
2024/03/31 07:10:49;;;;;;;32.43;5.67;;;9.10;99.90;;;;;;4958421;28;20031;-88
2024/03/31 07:13:14;;;;;;;39.33;5.00;;;9.10;99.90;;;;;;4960808;28;20023;-88
2024/03/31 07:15:40;;;;;;;40.40;5.43;;;9.20;99.90;;;;;;4958794;28;20078;-89
2024/03/31 07:18:10;;;;;;;37.83;5.30;;;9.30;99.90;;;;;;4959847;28;20435;-90
2024/03/31 07:20:36;;;;;;;41.83;5.80;;;9.40;99.90;;;;;;4956990;28;20649;-87
2024/03/31 07:23:03;;;;;;;36.07;5.40;;;9.40;99.90;;;;;;4957008;28;20027;-87
2024/03/31 07:25:32;;;;;;;32.33;5.93;;;9.40;99.90;;;;;;4959318;28;20022;-87
2024/03/31 07:27:58;;;;;;;35.97;6.37;;;9.50;99.90;;;;;;4958353;28;20027;-88
2024/03/31 07:30:23;;;;;;;42.67;6.50;;;9.50;99.90;;;;;;4956562;28;20045;-86
2024/03/31 07:32:49;;;;;;;24.37;5.20;;;9.60;99.90;;;;;;4955858;28;20039;-86
2024/03/31 07:35:15;;;;;;;31.40;6.20;;;9.60;99.90;;;;;;4939324;28;20031;-86
2024/03/31 07:37:40;;;;;;;39.30;6.20;;;9.60;99.90;;;;;;4956760;28;20085;-88
2024/03/31 07:40:06;;;;;;;34.83;7.93;;;9.60;99.90;;;;;;4956538;28;20035;-88
2024/03/31 07:42:32;;;;;;;35.30;5.70;;;9.60;99.90;;;;;;4956844;28;20043;-89
2024/03/31 07:44:58;;;;;;;38.20;7.10;;;9.60;99.90;;;;;;4954569;28;20042;-89
2024/03/31 07:47:23;;;;;;;36.33;5.53;;;9.50;99.90;;;;;;4956371;28;20528;-88
2024/03/31 07:49:49;;;;;;;28.13;5.53;;;9.50;99.90;;;;;;4954986;28;20035;-86
2024/03/31 07:52:14;;;;;;;33.37;6.33;;;9.50;99.90;;;;;;4955851;28;20027;-88
2024/03/31 07:54:40;;;;;;;64.07;28.13;;;9.50;99.90;;;;;;4951255;28;20034;-89
2024/03/31 07:57:05;;;;;;;46.27;8.60;;;9.50;99.90;;;;;;4953227;28;20042;-90
2024/03/31 07:59:31;;;;;;;30.67;5.40;;;9.50;99.90;;;;;;4955542;28;20783;-89
2024/03/31 08:01:57;;;;;;;39.87;7.83;;;9.50;99.90;;;;;;4955548;28;20558;-88
2024/03/31 08:04:23;;;;;;;38.73;5.90;;;9.40;99.90;;;;;;4953741;28;20035;-87
2024/03/31 08:06:48;;;;;;;46.10;6.53;;;9.40;99.90;;;;;;4952104;28;20031;-88
2024/03/31 08:09:14;;;;;;;28.57;5.40;;;9.40;99.90;;;;;;4955303;28;20093;-88
2024/03/31 08:11:39;;;;;;;37.90;6.27;;;9.50;99.90;;;;;;4954620;28;20046;-86
2024/03/31 08:14:05;;;;;;;44.13;6.00;;;9.50;99.90;;;;;;4953116;28;20130;-86
2024/03/31 08:16:31;;;;;;;31.77;5.23;;;9.60;99.90;;;;;;4952867;28;20104;-88
2024/03/31 08:18:57;;;;;;;29.97;5.63;;;9.70;99.90;;;;;;4953212;28;20093;-87
2024/03/31 08:21:23;;;;;;;39.70;10.23;;;9.70;99.90;;;;;;4935471;28;20035;-87
2024/03/31 08:23:50;;;;;;;36.17;8.27;;;9.90;99.90;;;;;;4940110;28;20035;-88
2024/03/31 08:26:15;;;;;;;34.27;6.80;;;10.00;99.90;;;;;;4951446;28;20600;-87
2024/03/31 08:28:41;;;;;;;51.90;7.30;;;10.00;99.90;;;;;;4951023;28;20045;-86
2024/03/31 08:31:06;;;;;;;33.47;6.20;;;10.20;99.90;;;;;;4953128;28;20027;-89
2024/03/31 08:33:32;;;;;;;42.70;6.83;;;10.20;99.90;;;;;;4953409;28;20082;-77
2024/03/31 08:35:58;;;;;;;26.27;5.53;;;10.30;99.90;;;;;;4952558;28;20031;-80
2024/03/31 08:38:23;;;;;;;44.27;6.37;;;10.30;99.90;;;;;;4955440;28;20035;-88
2024/03/31 08:40:59;;;;;;;48.23;9.03;;;10.40;99.90;;;;;;4953229;28;21338;-88
2024/03/31 08:43:29;;;;;;;46.57;7.20;;;10.40;99.90;;;;;;4951269;28;20049;-89
2024/03/31 08:45:56;;;;;;;33.27;5.73;;;10.40;99.90;;;;;;4935312;28;20058;-89
2024/03/31 08:48:25;;;;;;;30.13;5.60;;;10.50;99.90;;;;;;4951480;28;20122;-88
2024/03/31 08:50:53;;;;;;;33.43;6.30;;;10.60;99.90;;;;;;4950597;28;20046;-88
2024/03/31 08:53:19;;;;;;;36.10;5.47;;;10.60;99.90;;;;;;4952183;28;20034;-89
2024/03/31 08:55:45;;;;;;;39.73;5.93;;;10.60;99.90;;;;;;4950641;28;20169;-88
2024/03/31 08:58:10;;;;;;;41.73;6.00;;;10.70;99.90;;;;;;4951846;28;20034;-89
2024/03/31 09:00:41;;;;;;;34.87;6.13;;;10.70;99.90;;;;;;4935497;28;20054;-88
2024/03/31 09:03:07;;;;;;;41.17;5.63;;;10.80;99.90;;;;;;4954766;28;20038;-88
2024/03/31 09:05:33;;;;;;;38.83;7.10;;;10.90;99.90;;;;;;4950584;28;20932;-89
2024/03/31 09:07:59;;;;;;;38.43;7.20;;;11.10;99.90;;;;;;4952823;28;20415;-88
2024/03/31 09:10:25;;;;;;;40.30;8.27;;;11.30;99.90;;;;;;4952118;28;20058;-88
2024/03/31 09:12:53;;;;;;;40.55;5.60;;;11.40;99.90;;;;;;4936000;28;20840;-89
2024/03/31 09:15:19;;;;;;;40.10;6.93;;;11.60;99.90;;;;;;4958759;28;20028;-89
2024/03/31 09:17:45;;;;;;;49.40;7.53;;;11.80;99.90;;;;;;4942565;28;20035;-86
2024/03/31 09:20:11;;;;;;;36.40;6.27;;;12.00;99.90;;;;;;4941915;28;20026;-88
2024/03/31 09:22:42;;;;;;;39.38;6.18;;;12.10;99.90;;;;;;4956492;28;20451;-86
2024/03/31 09:25:10;;;;;;;49.20;5.97;;;12.30;99.90;;;;;;4937044;28;20459;-88
2024/03/31 09:27:36;;;;;;;41.78;6.18;;;12.40;99.90;;;;;;4958690;28;20035;-88
2024/03/31 09:30:05;;;;;;;33.70;5.90;;;12.50;99.90;;;;;;4957694;28;20144;-89
2024/03/31 09:32:32;;;;;;;43.30;6.85;;;12.50;99.90;;;;;;4958024;28;20125;-88
2024/03/31 09:34:58;;;;;;;42.97;6.32;;;12.70;99.90;;;;;;4956762;28;20033;-82
2024/03/31 09:37:24;;;;;;;41.33;5.90;;;12.80;99.90;;;;;;4956096;28;20026;-83
2024/03/31 09:39:50;;;;;;;52.90;7.65;;;12.90;99.90;;;;;;4958338;28;20031;-82
2024/03/31 09:42:16;;;;;;;42.20;6.45;;;13.00;99.90;;;;;;4955496;28;20030;-86
2024/03/31 09:44:43;;;;;;;39.75;6.03;;;13.20;99.90;;;;;;4955274;28;20035;-86
2024/03/31 09:47:24;;;;;;;41.05;7.38;;;13.40;99.90;;;;;;4953921;28;20027;-86
2024/03/31 09:50:10;;;;;;;37.03;5.95;;;13.40;99.90;;;;;;4955044;28;20100;-85
2024/03/31 09:52:44;;;;;;;45.70;6.50;;;13.50;99.90;;;;;;4956156;28;20024;-87
2024/03/31 09:55:13;;;;;;;46.90;6.40;;;13.60;99.90;;;;;;4954540;28;20498;-88
2024/03/31 09:57:44;;;;;;;43.08;6.15;;;13.70;99.90;;;;;;4957003;28;20062;-90
2024/03/31 10:00:13;;;;;;;50.53;7.05;;;13.70;99.90;;;;;;4956619;28;20167;-88
2024/03/31 10:03:00;;;;;;;43.85;5.97;;;13.80;99.90;;;;;;4954691;28;20030;-89
2024/03/31 10:05:32;;;;;;;42.50;6.07;;;13.70;99.90;;;;;;4945054;28;20039;-89
2024/03/31 10:07:59;;;;;;;39.28;6.13;;;13.80;99.90;;;;;;4956764;28;20035;-89
2024/03/31 10:10:27;;;;;;;36.58;6.07;;;13.90;99.90;;;;;;4955788;28;20131;-89
2024/03/31 10:12:53;;;;;;;31.67;5.55;;;13.90;99.90;;;;;;4960228;28;20760;-87
2024/03/31 10:15:20;;;;;;;35.30;5.75;;;13.90;99.90;;;;;;4956315;28;20023;-75
2024/03/31 10:17:48;;;;;;;48.40;6.65;;;13.90;99.90;;;;;;4952522;28;20046;-76
2024/03/31 10:20:18;;;;;;;44.50;5.78;;;14.00;99.90;;;;;;4952732;28;20035;-76
2024/03/31 10:22:45;;;;;;;48.45;7.30;;;14.00;99.90;;;;;;4958471;28;20683;-88
2024/03/31 10:25:11;;;;;;;46.88;6.05;;;14.10;99.90;;;;;;4957575;28;20051;-87
2024/03/31 10:27:43;;;;;;;51.60;8.25;;;14.10;99.90;;;;;;4959060;28;20078;-86
2024/03/31 10:30:10;;;;;;;40.03;6.28;;;14.10;99.90;;;;;;4960280;28;20030;-88
2024/03/31 10:32:37;;;;;;;52.25;6.10;;;14.20;99.90;;;;;;4957002;28;20122;-89
2024/03/31 10:35:06;;;;;;;37.85;6.60;;;14.40;99.90;;;;;;4957432;28;20035;-89
2024/03/31 10:37:33;;;;;;;39.83;6.53;;;14.60;99.90;;;;;;4958307;28;20026;-90
2024/03/31 10:40:04;;;;;;;43.63;5.93;;;14.80;99.90;;;;;;4959855;28;20027;-88
2024/03/31 10:42:30;;;;;;;38.15;6.72;;;15.00;99.90;;;;;;4960431;28;20094;-90
2024/03/31 10:44:56;;;;;;;43.30;5.82;;;15.20;99.90;;;;;;4958604;28;20035;-89
2024/03/31 10:47:22;;;;;;;61.47;20.80;;;15.60;99.90;;;;;;4958346;28;20035;-90
2024/03/31 10:49:59;;;;;;;49.03;8.20;;;15.90;99.90;;;;;;4955764;28;20463;-75
2024/03/31 10:52:31;;;;;;;40.38;7.03;;;16.00;99.90;;;;;;4938422;28;20039;-75
2024/03/31 10:54:59;;;;;;;31.65;4.65;;;16.00;99.90;;;;;;4955226;28;20034;-75
2024/03/31 10:57:42;;;;;;;39.08;5.32;;;16.10;99.90;;;;;;4954238;28;20027;-84
2024/03/31 11:00:16;;;;;;;42.17;5.63;;;15.90;99.90;;;;;;4956437;28;20031;-85
2024/03/31 11:02:41;;;;;;;38.80;5.43;;;15.90;99.90;;;;;;4956738;28;20035;-85
2024/03/31 11:05:10;;;;;;;40.45;6.63;;;15.80;99.90;;;;;;4938839;28;20270;-85
2024/03/31 11:07:37;;;;;;;42.20;6.18;;;15.80;99.90;;;;;;4958419;28;20115;-85
2024/03/31 11:10:06;;;;;;;42.80;5.50;;;15.90;99.90;;;;;;4955924;28;20038;-84
2024/03/31 11:12:32;;;;;;;44.15;5.85;;;16.00;99.90;;;;;;4955071;28;20034;-86
2024/03/31 11:14:59;;;;;;;34.90;5.10;;;16.10;99.90;;;;;;4935212;28;20004;-84
2024/03/31 11:17:25;;;;;;;44.65;5.95;;;16.30;99.90;;;;;;4954419;28;20166;-83
2024/03/31 11:19:52;;;;;;;39.83;4.75;;;16.50;99.90;;;;;;4954002;28;20078;-84
2024/03/31 11:22:21;;;;;;;32.17;5.55;;;16.70;99.90;;;;;;4954627;28;20125;-85
2024/03/31 11:24:46;;;;;;;29.58;5.45;;;16.90;99.90;;;;;;4956636;28;20102;-73
2024/03/31 11:27:12;;;;;;;36.08;5.60;;;17.20;99.90;;;;;;4953338;28;20034;-85
2024/03/31 11:29:38;;;;;;;35.63;6.28;;;17.80;99.90;;;;;;4952502;28;20042;-77
2024/03/31 11:32:04;;;;;;;40.45;5.88;;;18.10;99.90;;;;;;4951036;28;20050;-81
2024/03/31 11:34:30;;;;;;;46.05;5.75;;;18.40;99.90;;;;;;4953281;28;20031;-78
2024/03/31 11:36:55;;;;;;;28.40;6.10;;;18.60;99.90;;;;;;4949313;28;20026;-72
2024/03/31 11:39:21;;;;;;;41.03;5.65;;;18.90;99.90;;;;;;4949811;28;20027;-72
2024/03/31 11:41:47;;;;;;;37.38;6.95;;;19.00;99.90;;;;;;4952718;28;20035;-73
2024/03/31 11:44:13;;;;;;;33.15;5.20;;;19.10;99.90;;;;;;4952320;28;20102;-74
2024/03/31 11:46:39;;;;;;;34.72;5.50;;;19.20;99.90;;;;;;4951858;28;20464;-74
2024/03/31 11:49:05;;;;;;;34.15;5.07;;;19.20;99.90;;;;;;4951773;28;20181;-73
2024/03/31 11:51:33;;;;;;;27.42;5.57;;;19.10;99.90;;;;;;4951410;28;20942;-73
2024/03/31 11:53:59;;;;;;;25.02;5.00;;;19.10;99.90;;;;;;4952243;28;20075;-75
2024/03/31 11:56:24;;;;;;;25.23;4.43;;;19.40;99.90;;;;;;4953863;28;20030;-74
2024/03/31 11:58:50;;;;;;;35.53;5.43;;;19.60;99.90;;;;;;4952988;28;20105;-75
2024/03/31 12:01:21;;;;;;;30.80;6.13;;;19.70;99.90;;;;;;4953515;28;20059;-75
2024/03/31 12:03:56;;;;;;;33.85;4.90;;;19.60;99.90;;;;;;4953345;28;20561;-81
2024/03/31 12:06:23;;;;;;;45.83;5.20;;;19.50;99.90;;;;;;4953293;28;20134;-75
2024/03/31 12:08:52;;;;;;;42.35;5.82;;;19.40;99.90;;;;;;4953126;28;20058;-75
2024/03/31 12:11:21;;;;;;;31.67;4.45;;;19.20;99.90;;;;;;4952936;28;20120;-76
2024/03/31 12:13:51;;;;;;;37.17;5.15;;;19.10;99.90;;;;;;4953710;28;20035;-74
2024/03/31 12:16:18;;;;;;;28.65;4.80;;;18.80;99.90;;;;;;4950587;28;20031;-76
2024/03/31 12:18:44;;;;;;;32.50;5.90;;;18.60;99.90;;;;;;4950145;28;20031;-75
2024/03/31 12:21:10;;;;;;;39.65;5.10;;;18.60;99.90;;;;;;4953217;28;20031;-75
2024/03/31 12:23:36;;;;;;;29.13;5.32;;;18.50;99.90;;;;;;4953180;28;20700;-76
2024/03/31 12:26:05;;;;;;;30.73;4.93;;;18.50;99.90;;;;;;4950990;28;20111;-76
2024/03/31 12:28:31;;;;;;;29.85;4.95;;;18.40;99.90;;;;;;4951488;28;20031;-77
2024/03/31 12:30:57;;;;;;;30.02;5.28;;;18.50;99.90;;;;;;4953472;28;20034;-76
2024/03/31 12:33:23;;;;;;;39.42;5.05;;;18.60;99.90;;;;;;4952320;28;20031;-76
2024/03/31 12:35:49;;;;;;;36.53;5.57;;;18.60;99.90;;;;;;4951346;28;20039;-74